sensor_id;sensor_type;location;lat;lon;timestamp;P1;durP1;ratioP1;P2;durP2;ratioP2
62523;SDS011;53689;56.878;60.672;2022-07-29T00:01:03;16.67;;;12.95;;
62523;SDS011;53689;56.878;60.672;2022-07-29T00:03:30;14.63;;;11.90;;
62523;SDS011;53689;56.878;60.672;2022-07-29T00:05:58;16.88;;;13.15;;
62523;SDS011;53689;56.878;60.672;2022-07-29T00:08:27;14.52;;;12.43;;
62523;SDS011;53689;56.878;60.672;2022-07-29T00:10:55;16.98;;;12.82;;
62523;SDS011;53689;56.878;60.672;2022-07-29T00:13:22;16.00;;;12.52;;
62523;SDS011;53689;56.878;60.672;2022-07-29T00:15:58;16.08;;;12.63;;
62523;SDS011;53689;56.878;60.672;2022-07-29T00:18:30;18.63;;;12.60;;
62523;SDS011;53689;56.878;60.672;2022-07-29T00:20:58;14.43;;;12.05;;
62523;SDS011;53689;56.878;60.672;2022-07-29T00:23:26;17.52;;;12.98;;
62523;SDS011;53689;56.878;60.672;2022-07-29T00:25:56;16.88;;;12.75;;
62523;SDS011;53689;56.878;60.672;2022-07-29T00:28:23;14.98;;;12.32;;
62523;SDS011;53689;56.878;60.672;2022-07-29T00:30:51;16.08;;;12.50;;
62523;SDS011;53689;56.878;60.672;2022-07-29T00:33:18;17.02;;;12.82;;
62523;SDS011;53689;56.878;60.672;2022-07-29T00:35:46;16.40;;;12.27;;
62523;SDS011;53689;56.878;60.672;2022-07-29T00:38:14;18.92;;;12.80;;
62523;SDS011;53689;56.878;60.672;2022-07-29T00:40:44;19.20;;;13.43;;
62523;SDS011;53689;56.878;60.672;2022-07-29T00:43:11;18.70;;;13.60;;
62523;SDS011;53689;56.878;60.672;2022-07-29T00:45:39;17.40;;;13.65;;
62523;SDS011;53689;56.878;60.672;2022-07-29T00:48:07;18.50;;;13.35;;
62523;SDS011;53689;56.878;60.672;2022-07-29T00:50:35;18.88;;;13.20;;
62523;SDS011;53689;56.878;60.672;2022-07-29T00:53:03;17.10;;;12.68;;
62523;SDS011;53689;56.878;60.672;2022-07-29T00:58:01;16.90;;;12.35;;
62523;SDS011;53689;56.878;60.672;2022-07-29T01:00:28;14.60;;;11.68;;
62523;SDS011;53689;56.878;60.672;2022-07-29T01:02:56;16.05;;;12.35;;
62523;SDS011;53689;56.878;60.672;2022-07-29T01:05:24;20.85;;;13.23;;
62523;SDS011;53689;56.878;60.672;2022-07-29T01:08:14;25.27;;;13.80;;
62523;SDS011;53689;56.878;60.672;2022-07-29T01:10:42;19.13;;;12.70;;
62523;SDS011;53689;56.878;60.672;2022-07-29T01:13:13;18.77;;;11.98;;
62523;SDS011;53689;56.878;60.672;2022-07-29T01:15:43;17.27;;;12.23;;
62523;SDS011;53689;56.878;60.672;2022-07-29T01:18:16;17.40;;;12.38;;
62523;SDS011;53689;56.878;60.672;2022-07-29T01:20:53;17.85;;;11.75;;
62523;SDS011;53689;56.878;60.672;2022-07-29T01:23:38;16.98;;;11.93;;
62523;SDS011;53689;56.878;60.672;2022-07-29T01:29:23;22.00;;;12.00;;
62523;SDS011;53689;56.878;60.672;2022-07-29T01:32:05;23.05;;;11.57;;
62523;SDS011;53689;56.878;60.672;2022-07-29T01:34:55;21.20;;;11.10;;
62523;SDS011;53689;56.878;60.672;2022-07-29T01:37:31;16.52;;;11.43;;
62523;SDS011;53689;56.878;60.672;2022-07-29T01:40:05;17.23;;;11.70;;
62523;SDS011;53689;56.878;60.672;2022-07-29T01:42:38;15.00;;;10.00;;
62523;SDS011;53689;56.878;60.672;2022-07-29T01:45:12;16.13;;;10.80;;
62523;SDS011;53689;56.878;60.672;2022-07-29T01:47:44;15.38;;;11.02;;
62523;SDS011;53689;56.878;60.672;2022-07-29T01:50:16;14.38;;;10.35;;
62523;SDS011;53689;56.878;60.672;2022-07-29T01:52:46;13.52;;;10.80;;
62523;SDS011;53689;56.878;60.672;2022-07-29T01:55:19;15.20;;;11.18;;
62523;SDS011;53689;56.878;60.672;2022-07-29T01:57:49;13.50;;;10.57;;
62523;SDS011;53689;56.878;60.672;2022-07-29T02:00:17;13.27;;;10.20;;
62523;SDS011;53689;56.878;60.672;2022-07-29T02:02:45;13.38;;;10.13;;
62523;SDS011;53689;56.878;60.672;2022-07-29T02:05:15;13.70;;;9.65;;
62523;SDS011;53689;56.878;60.672;2022-07-29T02:07:46;14.50;;;9.18;;
62523;SDS011;53689;56.878;60.672;2022-07-29T02:10:15;13.82;;;10.07;;
62523;SDS011;53689;56.878;60.672;2022-07-29T02:12:51;12.80;;;9.55;;
62523;SDS011;53689;56.878;60.672;2022-07-29T02:15:22;11.88;;;9.95;;
62523;SDS011;53689;56.878;60.672;2022-07-29T02:17:53;13.32;;;10.38;;
62523;SDS011;53689;56.878;60.672;2022-07-29T02:20:25;15.65;;;10.88;;
62523;SDS011;53689;56.878;60.672;2022-07-29T02:22:54;13.80;;;10.85;;
62523;SDS011;53689;56.878;60.672;2022-07-29T02:25:24;14.27;;;10.18;;
62523;SDS011;53689;56.878;60.672;2022-07-29T02:28:03;13.25;;;10.13;;
62523;SDS011;53689;56.878;60.672;2022-07-29T02:30:33;14.27;;;9.88;;
62523;SDS011;53689;56.878;60.672;2022-07-29T02:33:03;15.30;;;10.05;;
62523;SDS011;53689;56.878;60.672;2022-07-29T02:35:32;14.68;;;10.90;;
62523;SDS011;53689;56.878;60.672;2022-07-29T02:38:01;12.40;;;9.65;;
62523;SDS011;53689;56.878;60.672;2022-07-29T02:40:29;13.32;;;9.50;;
62523;SDS011;53689;56.878;60.672;2022-07-29T02:42:57;13.82;;;9.45;;
62523;SDS011;53689;56.878;60.672;2022-07-29T02:45:26;14.07;;;9.87;;
62523;SDS011;53689;56.878;60.672;2022-07-29T02:47:55;13.80;;;9.75;;
62523;SDS011;53689;56.878;60.672;2022-07-29T02:50:27;14.52;;;9.85;;
62523;SDS011;53689;56.878;60.672;2022-07-29T02:53:00;12.95;;;9.30;;
62523;SDS011;53689;56.878;60.672;2022-07-29T02:55:33;15.10;;;9.80;;
62523;SDS011;53689;56.878;60.672;2022-07-29T02:58:05;15.60;;;10.55;;
62523;SDS011;53689;56.878;60.672;2022-07-29T03:00:40;16.92;;;9.25;;
62523;SDS011;53689;56.878;60.672;2022-07-29T03:03:12;14.23;;;9.73;;
62523;SDS011;53689;56.878;60.672;2022-07-29T03:05:41;12.38;;;9.45;;
62523;SDS011;53689;56.878;60.672;2022-07-29T03:08:09;14.90;;;9.45;;
62523;SDS011;53689;56.878;60.672;2022-07-29T03:13:09;12.73;;;9.60;;
62523;SDS011;53689;56.878;60.672;2022-07-29T03:15:38;14.90;;;10.00;;
62523;SDS011;53689;56.878;60.672;2022-07-29T03:18:06;14.18;;;9.35;;
62523;SDS011;53689;56.878;60.672;2022-07-29T03:20:36;16.73;;;9.73;;
62523;SDS011;53689;56.878;60.672;2022-07-29T03:23:04;13.40;;;8.38;;
62523;SDS011;53689;56.878;60.672;2022-07-29T03:25:31;12.80;;;9.05;;
62523;SDS011;53689;56.878;60.672;2022-07-29T03:27:59;11.23;;;9.02;;
62523;SDS011;53689;56.878;60.672;2022-07-29T03:30:26;13.40;;;8.95;;
62523;SDS011;53689;56.878;60.672;2022-07-29T03:32:54;14.63;;;9.32;;
62523;SDS011;53689;56.878;60.672;2022-07-29T03:35:24;13.25;;;8.60;;
62523;SDS011;53689;56.878;60.672;2022-07-29T03:37:53;12.75;;;8.38;;
62523;SDS011;53689;56.878;60.672;2022-07-29T03:40:22;11.65;;;8.82;;
62523;SDS011;53689;56.878;60.672;2022-07-29T03:42:53;12.48;;;9.20;;
62523;SDS011;53689;56.878;60.672;2022-07-29T03:45:22;10.55;;;8.27;;
62523;SDS011;53689;56.878;60.672;2022-07-29T03:47:51;11.80;;;8.05;;
62523;SDS011;53689;56.878;60.672;2022-07-29T03:50:26;12.52;;;8.15;;
62523;SDS011;53689;56.878;60.672;2022-07-29T03:52:56;12.40;;;8.00;;
62523;SDS011;53689;56.878;60.672;2022-07-29T03:55:24;13.48;;;8.88;;
62523;SDS011;53689;56.878;60.672;2022-07-29T03:57:53;13.05;;;8.20;;
62523;SDS011;53689;56.878;60.672;2022-07-29T04:00:22;15.32;;;9.65;;
62523;SDS011;53689;56.878;60.672;2022-07-29T04:02:52;13.77;;;9.30;;
62523;SDS011;53689;56.878;60.672;2022-07-29T04:05:19;14.73;;;9.18;;
62523;SDS011;53689;56.878;60.672;2022-07-29T04:07:47;15.00;;;7.95;;
62523;SDS011;53689;56.878;60.672;2022-07-29T04:10:16;13.88;;;8.38;;
62523;SDS011;53689;56.878;60.672;2022-07-29T04:12:57;13.52;;;8.95;;
62523;SDS011;53689;56.878;60.672;2022-07-29T04:15:25;23.98;;;9.00;;
62523;SDS011;53689;56.878;60.672;2022-07-29T04:17:57;14.95;;;7.80;;
62523;SDS011;53689;56.878;60.672;2022-07-29T04:20:25;20.95;;;7.88;;
62523;SDS011;53689;56.878;60.672;2022-07-29T04:22:52;17.42;;;8.38;;
62523;SDS011;53689;56.878;60.672;2022-07-29T04:25:21;15.57;;;7.32;;
62523;SDS011;53689;56.878;60.672;2022-07-29T04:27:48;26.63;;;8.73;;
62523;SDS011;53689;56.878;60.672;2022-07-29T04:30:16;16.38;;;8.10;;
62523;SDS011;53689;56.878;60.672;2022-07-29T04:32:44;18.08;;;8.38;;
62523;SDS011;53689;56.878;60.672;2022-07-29T04:35:11;16.42;;;9.20;;
62523;SDS011;53689;56.878;60.672;2022-07-29T04:37:39;14.93;;;9.70;;
62523;SDS011;53689;56.878;60.672;2022-07-29T04:40:06;17.35;;;8.38;;
62523;SDS011;53689;56.878;60.672;2022-07-29T04:42:36;15.70;;;8.40;;
62523;SDS011;53689;56.878;60.672;2022-07-29T04:45:13;13.35;;;7.47;;
62523;SDS011;53689;56.878;60.672;2022-07-29T04:47:41;10.15;;;7.03;;
62523;SDS011;53689;56.878;60.672;2022-07-29T04:50:09;12.02;;;7.50;;
62523;SDS011;53689;56.878;60.672;2022-07-29T04:52:36;37.30;;;11.98;;
62523;SDS011;53689;56.878;60.672;2022-07-29T04:55:04;20.30;;;9.98;;
62523;SDS011;53689;56.878;60.672;2022-07-29T04:57:32;18.88;;;9.70;;
62523;SDS011;53689;56.878;60.672;2022-07-29T05:00:01;17.95;;;8.02;;
62523;SDS011;53689;56.878;60.672;2022-07-29T05:02:30;20.02;;;8.48;;
62523;SDS011;53689;56.878;60.672;2022-07-29T05:04:57;15.52;;;9.20;;
62523;SDS011;53689;56.878;60.672;2022-07-29T05:07:25;19.10;;;11.85;;
62523;SDS011;53689;56.878;60.672;2022-07-29T05:09:52;18.73;;;10.70;;
62523;SDS011;53689;56.878;60.672;2022-07-29T05:12:20;17.73;;;7.65;;
62523;SDS011;53689;56.878;60.672;2022-07-29T05:14:47;23.08;;;8.05;;
62523;SDS011;53689;56.878;60.672;2022-07-29T05:17:16;27.23;;;9.35;;
62523;SDS011;53689;56.878;60.672;2022-07-29T05:19:43;51.87;;;9.97;;
62523;SDS011;53689;56.878;60.672;2022-07-29T05:22:11;25.52;;;7.80;;
62523;SDS011;53689;56.878;60.672;2022-07-29T05:24:38;33.17;;;9.32;;
62523;SDS011;53689;56.878;60.672;2022-07-29T05:27:05;63.50;;;9.60;;
62523;SDS011;53689;56.878;60.672;2022-07-29T05:29:33;86.80;;;11.50;;
62523;SDS011;53689;56.878;60.672;2022-07-29T05:32:11;35.63;;;7.90;;
62523;SDS011;53689;56.878;60.672;2022-07-29T05:34:40;42.88;;;7.72;;
62523;SDS011;53689;56.878;60.672;2022-07-29T05:37:17;34.25;;;7.35;;
62523;SDS011;53689;56.878;60.672;2022-07-29T05:39:45;35.15;;;8.10;;
62523;SDS011;53689;56.878;60.672;2022-07-29T05:42:22;17.40;;;7.60;;
62523;SDS011;53689;56.878;60.672;2022-07-29T05:44:50;26.10;;;8.75;;
62523;SDS011;53689;56.878;60.672;2022-07-29T05:47:17;20.23;;;7.75;;
62523;SDS011;53689;56.878;60.672;2022-07-29T05:49:46;23.00;;;9.43;;
62523;SDS011;53689;56.878;60.672;2022-07-29T05:52:14;21.85;;;10.38;;
62523;SDS011;53689;56.878;60.672;2022-07-29T05:54:41;19.55;;;8.73;;
62523;SDS011;53689;56.878;60.672;2022-07-29T05:57:15;18.25;;;7.57;;
62523;SDS011;53689;56.878;60.672;2022-07-29T05:59:42;16.48;;;7.72;;
62523;SDS011;53689;56.878;60.672;2022-07-29T06:02:10;17.13;;;6.70;;
62523;SDS011;53689;56.878;60.672;2022-07-29T06:04:37;22.63;;;6.80;;
62523;SDS011;53689;56.878;60.672;2022-07-29T06:07:06;22.30;;;7.35;;
62523;SDS011;53689;56.878;60.672;2022-07-29T06:09:34;60.20;;;10.18;;
62523;SDS011;53689;56.878;60.672;2022-07-29T06:12:02;41.65;;;8.40;;
62523;SDS011;53689;56.878;60.672;2022-07-29T06:14:30;50.92;;;8.88;;
62523;SDS011;53689;56.878;60.672;2022-07-29T06:16:58;25.20;;;8.35;;
62523;SDS011;53689;56.878;60.672;2022-07-29T06:19:25;18.42;;;7.57;;
62523;SDS011;53689;56.878;60.672;2022-07-29T06:21:52;21.52;;;8.23;;
62523;SDS011;53689;56.878;60.672;2022-07-29T06:24:21;24.20;;;8.52;;
62523;SDS011;53689;56.878;60.672;2022-07-29T06:26:49;21.63;;;8.60;;
62523;SDS011;53689;56.878;60.672;2022-07-29T06:29:16;20.92;;;8.27;;
62523;SDS011;53689;56.878;60.672;2022-07-29T06:31:44;19.70;;;8.40;;
62523;SDS011;53689;56.878;60.672;2022-07-29T06:34:11;24.60;;;9.43;;
62523;SDS011;53689;56.878;60.672;2022-07-29T06:36:39;31.85;;;11.30;;
62523;SDS011;53689;56.878;60.672;2022-07-29T06:39:07;48.88;;;15.57;;
62523;SDS011;53689;56.878;60.672;2022-07-29T06:41:38;50.67;;;21.38;;
62523;SDS011;53689;56.878;60.672;2022-07-29T06:44:08;55.00;;;19.60;;
62523;SDS011;53689;56.878;60.672;2022-07-29T06:46:36;29.77;;;10.80;;
62523;SDS011;53689;56.878;60.672;2022-07-29T06:49:03;23.10;;;10.20;;
62523;SDS011;53689;56.878;60.672;2022-07-29T06:51:31;26.00;;;9.40;;
62523;SDS011;53689;56.878;60.672;2022-07-29T06:53:59;21.42;;;9.02;;
62523;SDS011;53689;56.878;60.672;2022-07-29T06:56:29;17.30;;;7.50;;
62523;SDS011;53689;56.878;60.672;2022-07-29T06:58:58;15.93;;;7.63;;
62523;SDS011;53689;56.878;60.672;2022-07-29T07:01:27;14.63;;;8.02;;
62523;SDS011;53689;56.878;60.672;2022-07-29T07:03:54;13.25;;;8.88;;
62523;SDS011;53689;56.878;60.672;2022-07-29T07:06:22;11.63;;;8.13;;
62523;SDS011;53689;56.878;60.672;2022-07-29T07:08:49;14.63;;;9.00;;
62523;SDS011;53689;56.878;60.672;2022-07-29T07:11:17;16.13;;;8.13;;
62523;SDS011;53689;56.878;60.672;2022-07-29T07:13:44;14.02;;;7.32;;
62523;SDS011;53689;56.878;60.672;2022-07-29T07:16:13;13.02;;;7.72;;
62523;SDS011;53689;56.878;60.672;2022-07-29T07:18:41;13.02;;;7.43;;
62523;SDS011;53689;56.878;60.672;2022-07-29T07:21:09;10.15;;;6.90;;
62523;SDS011;53689;56.878;60.672;2022-07-29T07:23:37;13.25;;;6.78;;
62523;SDS011;53689;56.878;60.672;2022-07-29T07:26:04;10.73;;;6.80;;
62523;SDS011;53689;56.878;60.672;2022-07-29T07:28:32;13.35;;;6.85;;
62523;SDS011;53689;56.878;60.672;2022-07-29T07:30:59;10.95;;;7.07;;
62523;SDS011;53689;56.878;60.672;2022-07-29T07:33:28;11.88;;;7.53;;
62523;SDS011;53689;56.878;60.672;2022-07-29T07:35:56;16.20;;;8.90;;
62523;SDS011;53689;56.878;60.672;2022-07-29T07:38:23;11.13;;;7.90;;
62523;SDS011;53689;56.878;60.672;2022-07-29T07:40:51;14.35;;;7.38;;
62523;SDS011;53689;56.878;60.672;2022-07-29T07:43:18;51.67;;;44.17;;
62523;SDS011;53689;56.878;60.672;2022-07-29T07:45:46;14.00;;;7.43;;
62523;SDS011;53689;56.878;60.672;2022-07-29T07:48:15;13.23;;;6.80;;
62523;SDS011;53689;56.878;60.672;2022-07-29T07:50:44;12.52;;;7.47;;
62523;SDS011;53689;56.878;60.672;2022-07-29T07:53:12;13.25;;;8.00;;
62523;SDS011;53689;56.878;60.672;2022-07-29T07:55:42;15.38;;;7.50;;
62523;SDS011;53689;56.878;60.672;2022-07-29T07:58:30;13.23;;;6.57;;
62523;SDS011;53689;56.878;60.672;2022-07-29T08:00:57;15.35;;;7.15;;
62523;SDS011;53689;56.878;60.672;2022-07-29T08:03:25;16.15;;;8.30;;
62523;SDS011;53689;56.878;60.672;2022-07-29T08:05:54;12.98;;;7.22;;
62523;SDS011;53689;56.878;60.672;2022-07-29T08:08:22;11.70;;;7.28;;
62523;SDS011;53689;56.878;60.672;2022-07-29T08:10:49;13.18;;;7.00;;
62523;SDS011;53689;56.878;60.672;2022-07-29T08:13:17;15.63;;;7.18;;
62523;SDS011;53689;56.878;60.672;2022-07-29T08:15:45;9.95;;;6.05;;
62523;SDS011;53689;56.878;60.672;2022-07-29T08:18:12;11.25;;;5.93;;
62523;SDS011;53689;56.878;60.672;2022-07-29T08:20:40;14.60;;;9.93;;
62523;SDS011;53689;56.878;60.672;2022-07-29T08:23:09;12.80;;;9.02;;
62523;SDS011;53689;56.878;60.672;2022-07-29T08:25:36;11.50;;;7.20;;
62523;SDS011;53689;56.878;60.672;2022-07-29T08:28:05;12.13;;;7.82;;
62523;SDS011;53689;56.878;60.672;2022-07-29T08:30:33;12.52;;;8.27;;
62523;SDS011;53689;56.878;60.672;2022-07-29T08:33:01;11.68;;;6.80;;
62523;SDS011;53689;56.878;60.672;2022-07-29T08:35:29;12.18;;;6.70;;
62523;SDS011;53689;56.878;60.672;2022-07-29T08:38:02;12.27;;;6.25;;
62523;SDS011;53689;56.878;60.672;2022-07-29T08:40:31;10.45;;;6.18;;
62523;SDS011;53689;56.878;60.672;2022-07-29T08:42:59;9.75;;;6.30;;
62523;SDS011;53689;56.878;60.672;2022-07-29T08:45:35;9.80;;;6.07;;
62523;SDS011;53689;56.878;60.672;2022-07-29T08:48:14;10.30;;;6.18;;
62523;SDS011;53689;56.878;60.672;2022-07-29T08:53:13;7.60;;;5.60;;
62523;SDS011;53689;56.878;60.672;2022-07-29T08:55:43;9.43;;;6.38;;
62523;SDS011;53689;56.878;60.672;2022-07-29T08:58:12;12.45;;;6.20;;
62523;SDS011;53689;56.878;60.672;2022-07-29T09:00:42;10.65;;;5.78;;
62523;SDS011;53689;56.878;60.672;2022-07-29T09:03:12;9.73;;;5.38;;
62523;SDS011;53689;56.878;60.672;2022-07-29T09:05:43;10.73;;;5.45;;
62523;SDS011;53689;56.878;60.672;2022-07-29T09:08:14;10.85;;;6.03;;
62523;SDS011;53689;56.878;60.672;2022-07-29T09:10:43;10.60;;;6.45;;
62523;SDS011;53689;56.878;60.672;2022-07-29T09:13:11;12.68;;;7.20;;
62523;SDS011;53689;56.878;60.672;2022-07-29T09:15:39;11.73;;;6.47;;
62523;SDS011;53689;56.878;60.672;2022-07-29T09:18:07;12.00;;;6.38;;
62523;SDS011;53689;56.878;60.672;2022-07-29T09:20:56;13.25;;;6.05;;
62523;SDS011;53689;56.878;60.672;2022-07-29T09:23:23;11.40;;;6.50;;
62523;SDS011;53689;56.878;60.672;2022-07-29T09:25:52;34.55;;;9.75;;
62523;SDS011;53689;56.878;60.672;2022-07-29T09:28:20;24.58;;;8.43;;
62523;SDS011;53689;56.878;60.672;2022-07-29T09:30:51;19.17;;;8.32;;
62523;SDS011;53689;56.878;60.672;2022-07-29T09:33:19;22.50;;;9.13;;
62523;SDS011;53689;56.878;60.672;2022-07-29T09:35:58;29.73;;;9.73;;
62523;SDS011;53689;56.878;60.672;2022-07-29T09:38:27;37.42;;;12.00;;
62523;SDS011;53689;56.878;60.672;2022-07-29T09:40:59;33.42;;;10.32;;
62523;SDS011;53689;56.878;60.672;2022-07-29T09:43:32;34.55;;;9.73;;
62523;SDS011;53689;56.878;60.672;2022-07-29T09:46:09;22.77;;;9.07;;
62523;SDS011;53689;56.878;60.672;2022-07-29T09:48:38;36.92;;;11.32;;
62523;SDS011;53689;56.878;60.672;2022-07-29T09:51:16;34.28;;;8.70;;
62523;SDS011;53689;56.878;60.672;2022-07-29T09:53:48;28.10;;;8.55;;
62523;SDS011;53689;56.878;60.672;2022-07-29T09:56:20;16.88;;;7.68;;
62523;SDS011;53689;56.878;60.672;2022-07-29T09:59:05;15.90;;;7.18;;
62523;SDS011;53689;56.878;60.672;2022-07-29T10:01:32;13.65;;;7.97;;
62523;SDS011;53689;56.878;60.672;2022-07-29T10:04:00;14.60;;;7.43;;
62523;SDS011;53689;56.878;60.672;2022-07-29T10:06:28;15.13;;;7.78;;
62523;SDS011;53689;56.878;60.672;2022-07-29T10:09:06;16.35;;;7.88;;
62523;SDS011;53689;56.878;60.672;2022-07-29T10:11:36;16.42;;;7.20;;
62523;SDS011;53689;56.878;60.672;2022-07-29T10:14:15;11.48;;;5.80;;
62523;SDS011;53689;56.878;60.672;2022-07-29T10:16:43;89.57;;;72.63;;
62523;SDS011;53689;56.878;60.672;2022-07-29T10:19:12;13.30;;;8.60;;
62523;SDS011;53689;56.878;60.672;2022-07-29T10:21:40;15.57;;;11.27;;
62523;SDS011;53689;56.878;60.672;2022-07-29T10:24:07;15.93;;;10.48;;
62523;SDS011;53689;56.878;60.672;2022-07-29T10:26:42;13.32;;;6.88;;
62523;SDS011;53689;56.878;60.672;2022-07-29T10:29:10;12.70;;;6.20;;
62523;SDS011;53689;56.878;60.672;2022-07-29T10:31:40;10.25;;;6.60;;
62523;SDS011;53689;56.878;60.672;2022-07-29T10:34:17;11.52;;;6.32;;
62523;SDS011;53689;56.878;60.672;2022-07-29T10:36:56;15.13;;;8.93;;
62523;SDS011;53689;56.878;60.672;2022-07-29T10:39:39;11.20;;;6.70;;
62523;SDS011;53689;56.878;60.672;2022-07-29T10:42:18;12.35;;;6.88;;
62523;SDS011;53689;56.878;60.672;2022-07-29T10:45:00;10.35;;;6.07;;
62523;SDS011;53689;56.878;60.672;2022-07-29T10:47:30;10.85;;;6.47;;
62523;SDS011;53689;56.878;60.672;2022-07-29T10:50:01;12.45;;;6.20;;
62523;SDS011;53689;56.878;60.672;2022-07-29T10:55:33;10.48;;;5.18;;
62523;SDS011;53689;56.878;60.672;2022-07-29T10:58:16;10.68;;;5.50;;
62523;SDS011;53689;56.878;60.672;2022-07-29T11:00:45;9.60;;;5.80;;
62523;SDS011;53689;56.878;60.672;2022-07-29T11:06:16;11.07;;;5.63;;
62523;SDS011;53689;56.878;60.672;2022-07-29T11:11:46;8.65;;;4.82;;
62523;SDS011;53689;56.878;60.672;2022-07-29T11:14:19;8.23;;;4.90;;
62523;SDS011;53689;56.878;60.672;2022-07-29T11:17:23;9.88;;;5.38;;
62523;SDS011;53689;56.878;60.672;2022-07-29T11:19:52;8.97;;;5.23;;
62523;SDS011;53689;56.878;60.672;2022-07-29T11:22:58;8.93;;;6.32;;
62523;SDS011;53689;56.878;60.672;2022-07-29T11:25:26;7.70;;;4.80;;
62523;SDS011;53689;56.878;60.672;2022-07-29T11:28:15;10.38;;;5.45;;
62523;SDS011;53689;56.878;60.672;2022-07-29T11:30:53;8.18;;;5.15;;
62523;SDS011;53689;56.878;60.672;2022-07-29T11:33:29;9.60;;;5.50;;
62523;SDS011;53689;56.878;60.672;2022-07-29T11:36:18;8.02;;;4.80;;
62523;SDS011;53689;56.878;60.672;2022-07-29T11:45:10;8.23;;;5.68;;
62523;SDS011;53689;56.878;60.672;2022-07-29T11:48:00;9.07;;;6.25;;
62523;SDS011;53689;56.878;60.672;2022-07-29T11:50:48;9.55;;;5.72;;
62523;SDS011;53689;56.878;60.672;2022-07-29T11:53:16;11.00;;;5.17;;
62523;SDS011;53689;56.878;60.672;2022-07-29T11:55:44;10.55;;;5.65;;
62523;SDS011;53689;56.878;60.672;2022-07-29T11:58:20;6.55;;;4.93;;
62523;SDS011;53689;56.878;60.672;2022-07-29T12:00:51;12.88;;;5.70;;
62523;SDS011;53689;56.878;60.672;2022-07-29T12:03:25;11.23;;;5.40;;
62523;SDS011;53689;56.878;60.672;2022-07-29T12:06:13;8.52;;;5.55;;
62523;SDS011;53689;56.878;60.672;2022-07-29T12:08:44;10.43;;;5.65;;
62523;SDS011;53689;56.878;60.672;2022-07-29T12:11:16;9.45;;;5.95;;
62523;SDS011;53689;56.878;60.672;2022-07-29T12:13:47;8.57;;;5.70;;
62523;SDS011;53689;56.878;60.672;2022-07-29T12:16:15;10.13;;;5.07;;
62523;SDS011;53689;56.878;60.672;2022-07-29T12:19:00;8.60;;;5.60;;
62523;SDS011;53689;56.878;60.672;2022-07-29T12:21:28;10.98;;;5.80;;
62523;SDS011;53689;56.878;60.672;2022-07-29T12:23:57;7.10;;;5.00;;
62523;SDS011;53689;56.878;60.672;2022-07-29T12:26:34;9.95;;;5.88;;
62523;SDS011;53689;56.878;60.672;2022-07-29T12:29:02;10.10;;;5.47;;
62523;SDS011;53689;56.878;60.672;2022-07-29T12:31:41;9.68;;;5.78;;
62523;SDS011;53689;56.878;60.672;2022-07-29T12:34:13;9.30;;;5.70;;
62523;SDS011;53689;56.878;60.672;2022-07-29T12:36:42;8.38;;;5.35;;
62523;SDS011;53689;56.878;60.672;2022-07-29T12:39:10;9.95;;;5.68;;
62523;SDS011;53689;56.878;60.672;2022-07-29T12:41:38;10.73;;;5.80;;
62523;SDS011;53689;56.878;60.672;2022-07-29T12:44:05;8.27;;;5.28;;
62523;SDS011;53689;56.878;60.672;2022-07-29T12:46:33;10.68;;;5.50;;
62523;SDS011;53689;56.878;60.672;2022-07-29T12:49:00;8.90;;;5.32;;
62523;SDS011;53689;56.878;60.672;2022-07-29T12:51:31;9.63;;;5.85;;
62523;SDS011;53689;56.878;60.672;2022-07-29T12:54:03;9.15;;;5.25;;
62523;SDS011;53689;56.878;60.672;2022-07-29T12:56:33;8.27;;;5.78;;
62523;SDS011;53689;56.878;60.672;2022-07-29T12:59:14;9.98;;;5.30;;
62523;SDS011;53689;56.878;60.672;2022-07-29T13:01:43;9.80;;;5.45;;
62523;SDS011;53689;56.878;60.672;2022-07-29T13:04:11;8.73;;;5.47;;
62523;SDS011;53689;56.878;60.672;2022-07-29T13:06:58;10.88;;;6.00;;
62523;SDS011;53689;56.878;60.672;2022-07-29T13:09:36;11.05;;;6.25;;
62523;SDS011;53689;56.878;60.672;2022-07-29T13:12:06;9.95;;;5.78;;
62523;SDS011;53689;56.878;60.672;2022-07-29T13:17:04;8.07;;;4.80;;
62523;SDS011;53689;56.878;60.672;2022-07-29T13:19:33;10.48;;;5.38;;
62523;SDS011;53689;56.878;60.672;2022-07-29T13:22:06;10.82;;;5.35;;
62523;SDS011;53689;56.878;60.672;2022-07-29T13:24:34;8.95;;;4.95;;
62523;SDS011;53689;56.878;60.672;2022-07-29T13:27:13;10.67;;;6.60;;
62523;SDS011;53689;56.878;60.672;2022-07-29T13:29:41;10.48;;;5.63;;
62523;SDS011;53689;56.878;60.672;2022-07-29T13:32:08;10.02;;;5.95;;
62523;SDS011;53689;56.878;60.672;2022-07-29T13:34:36;9.15;;;5.30;;
62523;SDS011;53689;56.878;60.672;2022-07-29T13:37:03;14.40;;;5.20;;
62523;SDS011;53689;56.878;60.672;2022-07-29T13:39:32;8.95;;;5.18;;
62523;SDS011;53689;56.878;60.672;2022-07-29T13:42:00;10.10;;;4.90;;
62523;SDS011;53689;56.878;60.672;2022-07-29T13:44:28;8.30;;;5.10;;
62523;SDS011;53689;56.878;60.672;2022-07-29T13:46:55;9.43;;;5.60;;
62523;SDS011;53689;56.878;60.672;2022-07-29T13:49:23;9.52;;;5.80;;
62523;SDS011;53689;56.878;60.672;2022-07-29T13:51:50;8.93;;;5.10;;
62523;SDS011;53689;56.878;60.672;2022-07-29T13:54:18;11.60;;;5.70;;
62523;SDS011;53689;56.878;60.672;2022-07-29T13:56:46;9.05;;;5.68;;
62523;SDS011;53689;56.878;60.672;2022-07-29T13:59:14;8.55;;;5.50;;
62523;SDS011;53689;56.878;60.672;2022-07-29T14:01:41;9.40;;;5.50;;
62523;SDS011;53689;56.878;60.672;2022-07-29T14:04:11;9.75;;;5.15;;
62523;SDS011;53689;56.878;60.672;2022-07-29T14:06:38;8.00;;;5.65;;
62523;SDS011;53689;56.878;60.672;2022-07-29T14:09:06;7.90;;;5.38;;
62523;SDS011;53689;56.878;60.672;2022-07-29T14:11:34;11.57;;;5.85;;
62523;SDS011;53689;56.878;60.672;2022-07-29T14:14:03;9.55;;;6.03;;
62523;SDS011;53689;56.878;60.672;2022-07-29T14:16:31;8.95;;;5.35;;
62523;SDS011;53689;56.878;60.672;2022-07-29T14:18:58;8.02;;;5.45;;
62523;SDS011;53689;56.878;60.672;2022-07-29T14:21:26;9.45;;;5.50;;
62523;SDS011;53689;56.878;60.672;2022-07-29T14:23:56;8.23;;;5.43;;
62523;SDS011;53689;56.878;60.672;2022-07-29T14:26:23;8.70;;;5.40;;
62523;SDS011;53689;56.878;60.672;2022-07-29T14:28:53;8.05;;;5.18;;
62523;SDS011;53689;56.878;60.672;2022-07-29T14:31:22;7.65;;;5.50;;
62523;SDS011;53689;56.878;60.672;2022-07-29T14:33:49;6.28;;;4.47;;
62523;SDS011;53689;56.878;60.672;2022-07-29T14:36:16;8.63;;;5.28;;
62523;SDS011;53689;56.878;60.672;2022-07-29T14:38:44;9.00;;;5.00;;
62523;SDS011;53689;56.878;60.672;2022-07-29T14:41:13;8.05;;;4.93;;
62523;SDS011;53689;56.878;60.672;2022-07-29T14:43:40;12.52;;;6.97;;
62523;SDS011;53689;56.878;60.672;2022-07-29T14:46:07;8.15;;;4.97;;
62523;SDS011;53689;56.878;60.672;2022-07-29T14:48:37;7.60;;;4.90;;
62523;SDS011;53689;56.878;60.672;2022-07-29T14:51:04;9.60;;;6.32;;
62523;SDS011;53689;56.878;60.672;2022-07-29T14:53:32;11.38;;;6.35;;
62523;SDS011;53689;56.878;60.672;2022-07-29T14:55:59;8.25;;;5.90;;
62523;SDS011;53689;56.878;60.672;2022-07-29T14:58:46;11.45;;;8.90;;
62523;SDS011;53689;56.878;60.672;2022-07-29T15:01:17;12.50;;;7.90;;
62523;SDS011;53689;56.878;60.672;2022-07-29T15:03:46;11.15;;;7.93;;
62523;SDS011;53689;56.878;60.672;2022-07-29T15:06:14;12.30;;;7.68;;
62523;SDS011;53689;56.878;60.672;2022-07-29T15:08:41;10.00;;;5.97;;